Weather at Alldays (Greater Kuduland) Airport

Public forecast

Using degrees Celsius for public forecast. Weather courtesy of forecast.io.

Closest aviation weather report (METAR) to Alldays (Greater Kuduland) Airport

Report is more than 6 hours old.

Closest report is Polokwane International Airport, 67.5 nm (125.1 km) SSE.

2022/11/14 15:00 (retrieved 2 years ago)

FAPP 141500Z 07012KT 9999 FEW025 SCT080 21/13 Q1024 NOSIG

Closest aviation forecast (TAF) to Alldays (Greater Kuduland) Airport

Forecast is more than 12 hours old.

Closest forecast is Sir Seretse Khama International Airport, 199.2 nm (369.0 km) WSW.

2023/02/22 18:15 (retrieved 1 year ago)

TAF TAF FBSK 221600Z 2218/2324 09005KT CAVOK BECMG 2304/2306 BKN015 BECMG 231 0/2312 SCT020